Time;durP1;ratioP1;P1;durP2;ratioP2;P2;SDS_P1;SDS_P2;PMS_P1;PMS_P2;Temp;Humidity;BMP_temperature;BMP_pressure;BME280_temperature;BME280_humidity;BME280_pressure;Samples;Min_cycle;Max_cycle;Signal;HPM_P1;HPM_P2
2021/03/07 00:02:24;;;;;;;25.92;11.43;;;3.80;99.90;;;;;;5068697;28;20051;-67
2021/03/07 00:05:28;;;;;;;25.25;9.73;;;3.80;99.90;;;;;;5068220;28;20043;-66
2021/03/07 00:08:39;;;;;;;29.40;8.93;;;3.90;99.90;;;;;;5057124;28;20051;-66
2021/03/07 00:11:44;;;;;;;32.65;9.35;;;3.80;99.90;;;;;;5061416;28;20432;-66
2021/03/07 00:14:48;;;;;;;29.25;9.35;;;3.80;99.90;;;;;;5066487;28;20400;-67
2021/03/07 00:17:53;;;;;;;22.98;7.80;;;3.80;99.90;;;;;;5064661;28;20036;-65
2021/03/07 00:20:57;;;;;;;22.55;7.60;;;3.80;99.90;;;;;;5068607;28;20055;-67
2021/03/07 00:24:01;;;;;;;28.83;8.40;;;3.80;99.90;;;;;;5062464;28;20057;-67
2021/03/07 00:27:05;;;;;;;21.27;7.63;;;3.70;99.90;;;;;;5051675;28;20040;-66
2021/03/07 00:30:12;;;;;;;19.83;8.07;;;3.70;99.90;;;;;;5059154;28;20044;-67
2021/03/07 00:33:16;;;;;;;14.38;6.43;;;3.70;99.90;;;;;;5072053;28;20515;-67
2021/03/07 00:36:20;;;;;;;7.88;5.15;;;3.70;99.90;;;;;;5071214;28;20047;-67
2021/03/07 00:39:25;;;;;;;13.10;4.97;;;3.60;99.90;;;;;;5063366;28;20029;-67
2021/03/07 00:42:29;;;;;;;11.95;5.25;;;3.60;99.90;;;;;;5071451;28;20052;-67
2021/03/07 00:45:35;;;;;;;10.15;5.50;;;3.60;99.90;;;;;;5071106;28;20059;-66
2021/03/07 00:48:39;;;;;;;15.98;6.22;;;3.50;99.90;;;;;;5072050;28;20059;-65
2021/03/07 00:51:43;;;;;;;11.23;5.57;;;3.50;99.90;;;;;;5062404;28;20040;-66
2021/03/07 00:54:48;;;;;;;8.57;4.28;;;3.40;99.90;;;;;;5059657;28;20060;-66
2021/03/07 00:57:53;;;;;;;11.40;5.55;;;3.30;99.90;;;;;;5071149;28;20485;-67
2021/03/07 01:00:57;;;;;;;15.45;5.68;;;3.30;99.90;;;;;;5065193;28;20043;-67
2021/03/07 01:04:02;;;;;;;11.00;5.10;;;3.20;99.90;;;;;;5065877;28;20044;-65
2021/03/07 01:07:06;;;;;;;10.23;5.03;;;3.10;99.90;;;;;;5071480;28;20414;-66
2021/03/07 01:10:37;;;;;;;15.40;6.53;;;3.10;99.90;;;;;;5059845;28;20039;-67
2021/03/07 01:13:42;;;;;;;13.23;5.55;;;3.10;99.90;;;;;;5072274;28;20047;-66
2021/03/07 01:16:46;;;;;;;11.88;5.45;;;3.20;99.90;;;;;;5058031;28;20043;-66
2021/03/07 01:19:53;;;;;;;14.43;5.50;;;3.20;99.90;;;;;;5072048;28;20047;-66
2021/03/07 01:22:57;;;;;;;8.68;4.90;;;3.10;99.90;;;;;;5072036;28;20104;-66
2021/03/07 01:26:03;;;;;;;11.27;5.38;;;3.20;99.90;;;;;;5065360;28;20054;-66
2021/03/07 01:29:07;;;;;;;14.32;5.97;;;3.20;99.90;;;;;;5062253;28;20515;-66
2021/03/07 01:32:11;;;;;;;13.88;5.50;;;3.20;99.90;;;;;;5059188;28;20752;-66
2021/03/07 01:35:16;;;;;;;16.40;5.85;;;3.10;99.90;;;;;;5070516;28;20614;-67
2021/03/07 01:38:21;;;;;;;12.40;5.82;;;3.10;99.90;;;;;;5071558;28;20043;-67
2021/03/07 01:41:25;;;;;;;16.13;5.90;;;3.10;99.90;;;;;;5071436;28;20048;-66
2021/03/07 01:44:30;;;;;;;16.70;5.40;;;3.00;99.90;;;;;;5071153;28;20503;-67
2021/03/07 01:47:46;;;;;;;14.38;5.90;;;3.00;99.90;;;;;;5071398;28;20043;-66
2021/03/07 01:50:53;;;;;;;11.63;5.75;;;2.90;99.90;;;;;;5069807;28;20047;-67
2021/03/07 01:53:57;;;;;;;14.48;7.30;;;2.80;99.90;;;;;;5071159;28;20043;-66
2021/03/07 01:57:03;;;;;;;13.82;8.48;;;2.80;99.90;;;;;;5069133;28;20040;-65
2021/03/07 02:00:10;;;;;;;14.23;10.98;;;2.80;99.90;;;;;;5065436;28;20036;-67
2021/03/07 02:03:18;;;;;;;16.08;10.13;;;2.80;99.90;;;;;;5069616;28;20052;-66
2021/03/07 02:06:23;;;;;;;14.30;6.55;;;2.80;99.90;;;;;;5066312;28;20044;-67
2021/03/07 02:09:27;;;;;;;14.93;7.35;;;2.80;99.90;;;;;;5065092;28;20749;-65
2021/03/07 02:12:33;;;;;;;16.63;6.38;;;2.70;99.90;;;;;;5070196;28;20093;-66
2021/03/07 02:15:41;;;;;;;13.23;6.43;;;2.70;99.90;;;;;;5069509;28;20047;-66
2021/03/07 02:18:49;;;;;;;14.15;6.45;;;2.70;99.90;;;;;;5070333;28;20031;-65
2021/03/07 02:21:58;;;;;;;18.20;5.75;;;2.70;99.90;;;;;;5070090;28;20040;-67
2021/03/07 02:25:09;;;;;;;21.40;6.18;;;2.60;99.90;;;;;;5070393;28;20043;-67
2021/03/07 02:28:13;;;;;;;20.05;6.57;;;2.70;99.90;;;;;;5057228;28;20035;-66
2021/03/07 02:31:25;;;;;;;13.05;5.53;;;2.70;99.90;;;;;;5069768;28;20055;-67
2021/03/07 02:34:41;;;;;;;23.27;8.95;;;2.60;99.90;;;;;;5061268;28;20036;-67
2021/03/07 02:37:49;;;;;;;23.75;9.65;;;2.60;99.90;;;;;;5049208;28;20040;-67
2021/03/07 02:40:57;;;;;;;22.65;12.13;;;2.60;99.90;;;;;;5062449;28;20410;-67
2021/03/07 02:44:05;;;;;;;21.77;11.48;;;2.60;99.90;;;;;;5070026;28;20039;-67
2021/03/07 02:47:12;;;;;;;14.32;8.68;;;2.50;99.90;;;;;;5068633;28;20032;-66
2021/03/07 02:50:30;;;;;;;10.82;7.38;;;2.50;99.90;;;;;;5060298;28;20051;-67
2021/03/07 02:53:37;;;;;;;10.77;7.43;;;2.50;99.90;;;;;;5068137;28;20051;-67
2021/03/07 02:56:44;;;;;;;11.43;7.20;;;2.50;99.90;;;;;;5068789;28;20035;-67
2021/03/07 02:59:51;;;;;;;16.13;8.57;;;2.50;99.90;;;;;;5069656;28;20519;-67
2021/03/07 03:02:58;;;;;;;19.88;6.60;;;2.50;99.90;;;;;;5065136;28;20051;-67
2021/03/07 03:06:04;;;;;;;12.85;5.10;;;2.50;99.90;;;;;;5060772;28;20043;-67
2021/03/07 03:09:11;;;;;;;10.48;4.80;;;2.50;99.90;;;;;;5056100;28;20102;-67
2021/03/07 03:12:15;;;;;;;12.23;5.30;;;2.50;99.90;;;;;;5066949;28;20092;-67
2021/03/07 03:15:20;;;;;;;10.32;5.28;;;2.50;99.90;;;;;;5069074;28;20510;-66
2021/03/07 03:18:28;;;;;;;19.17;5.47;;;2.60;99.90;;;;;;5069180;28;20067;-66
2021/03/07 03:21:33;;;;;;;12.60;6.63;;;2.60;99.90;;;;;;5059934;28;20067;-67
2021/03/07 03:24:38;;;;;;;10.73;5.07;;;2.50;99.90;;;;;;5057284;28;20055;-66
2021/03/07 03:27:43;;;;;;;11.13;5.70;;;2.50;99.90;;;;;;5068843;28;20234;-67
2021/03/07 03:30:47;;;;;;;13.15;5.05;;;2.50;99.90;;;;;;5065868;28;20542;-67
2021/03/07 03:33:51;;;;;;;14.77;7.20;;;2.50;99.90;;;;;;5063258;28;20044;-67
2021/03/07 03:36:56;;;;;;;12.05;6.68;;;2.50;99.90;;;;;;5059550;28;20047;-67
2021/03/07 03:40:04;;;;;;;13.63;7.18;;;2.50;99.90;;;;;;5057594;28;20043;-67
2021/03/07 03:43:10;;;;;;;14.60;6.53;;;2.50;99.90;;;;;;5055353;28;20047;-66
2021/03/07 03:46:15;;;;;;;13.90;6.90;;;2.40;99.90;;;;;;5068829;28;20523;-66
2021/03/07 03:49:54;;;;;;;21.73;10.02;;;2.40;99.90;;;;;;5068082;28;20542;-66
2021/03/07 03:53:01;;;;;;;13.02;7.82;;;2.30;99.90;;;;;;5069674;28;20515;-67
2021/03/07 03:56:07;;;;;;;16.67;6.80;;;2.30;99.90;;;;;;5068580;28;20044;-66
2021/03/07 03:59:13;;;;;;;12.88;5.93;;;2.30;99.90;;;;;;5071006;28;20063;-66
2021/03/07 04:02:17;;;;;;;14.38;5.38;;;2.30;99.90;;;;;;5073278;28;20055;-66
2021/03/07 04:05:24;;;;;;;11.05;4.90;;;2.30;99.90;;;;;;5061144;28;20048;-67
2021/03/07 04:08:28;;;;;;;8.10;4.43;;;2.30;99.90;;;;;;5071976;28;20423;-67
2021/03/07 04:11:34;;;;;;;9.10;4.57;;;2.30;99.90;;;;;;5072889;28;20037;-66
2021/03/07 04:14:38;;;;;;;13.55;5.60;;;2.40;99.90;;;;;;5072654;28;20393;-66
2021/03/07 04:17:43;;;;;;;11.52;4.88;;;2.40;99.90;;;;;;5059369;28;20099;-67
2021/03/07 04:20:50;;;;;;;11.20;6.30;;;2.30;99.90;;;;;;5072508;28;20043;-67
2021/03/07 04:23:54;;;;;;;30.17;13.73;;;2.20;99.90;;;;;;5072517;28;20051;-64
2021/03/07 04:26:58;;;;;;;22.25;14.13;;;2.20;99.90;;;;;;5071847;28;20044;-66
2021/03/07 04:30:06;;;;;;;14.60;8.65;;;2.10;99.90;;;;;;5063307;28;20111;-66
2021/03/07 04:33:11;;;;;;;17.98;10.50;;;2.00;99.90;;;;;;5060275;28;20039;-67
2021/03/07 04:36:15;;;;;;;19.77;10.98;;;2.00;99.90;;;;;;5071220;28;20047;-66
2021/03/07 04:39:20;;;;;;;15.63;10.77;;;1.90;99.90;;;;;;5068261;28;20279;-66
2021/03/07 04:42:25;;;;;;;11.68;7.68;;;1.70;99.90;;;;;;5058224;28;20123;-66
2021/03/07 04:45:30;;;;;;;15.80;9.55;;;1.70;99.90;;;;;;5071616;28;20234;-66
2021/03/07 04:48:34;;;;;;;12.48;8.43;;;1.70;99.90;;;;;;5060716;28;20048;-67
2021/03/07 04:51:38;;;;;;;12.23;7.78;;;1.70;99.90;;;;;;5061098;28;20051;-66
2021/03/07 04:54:42;;;;;;;10.48;5.13;;;1.70;99.90;;;;;;5069489;28;20249;-66
2021/03/07 04:57:46;;;;;;;13.60;5.70;;;1.60;99.90;;;;;;5070501;28;20511;-67
2021/03/07 05:00:50;;;;;;;10.40;5.18;;;1.70;99.90;;;;;;5071791;28;20035;-66
2021/03/07 05:03:54;;;;;;;9.75;5.18;;;1.70;99.90;;;;;;5063844;28;20374;-67
2021/03/07 05:07:01;;;;;;;9.32;4.80;;;1.80;99.90;;;;;;5068931;28;20036;-67
2021/03/07 05:10:07;;;;;;;8.52;4.85;;;1.90;99.90;;;;;;5064880;28;20516;-66
2021/03/07 05:13:11;;;;;;;9.10;5.10;;;1.90;99.90;;;;;;5071578;28;20040;-66
2021/03/07 05:16:17;;;;;;;7.18;4.80;;;2.00;99.90;;;;;;5060055;28;20032;-66
2021/03/07 05:19:21;;;;;;;10.55;4.80;;;2.00;99.90;;;;;;5062218;28;20040;-66
2021/03/07 05:22:25;;;;;;;10.60;5.55;;;2.00;99.90;;;;;;5057556;28;20132;-66
2021/03/07 05:25:33;;;;;;;20.35;9.57;;;2.00;99.90;;;;;;5056849;28;20282;-67
2021/03/07 05:28:37;;;;;;;13.52;7.93;;;1.90;99.90;;;;;;5056059;28;20040;-65
2021/03/07 05:31:41;;;;;;;10.68;5.90;;;1.80;99.90;;;;;;5055224;28;20052;-66
2021/03/07 05:34:45;;;;;;;11.18;7.22;;;1.70;99.90;;;;;;5054751;28;20036;-65
2021/03/07 05:37:49;;;;;;;8.35;5.22;;;1.70;99.90;;;;;;5060037;28;20035;-66
2021/03/07 05:40:54;;;;;;;9.98;5.28;;;1.60;99.90;;;;;;5064830;28;20041;-66
2021/03/07 05:43:59;;;;;;;11.13;5.70;;;1.60;99.90;;;;;;5064211;28;20544;-66
2021/03/07 05:47:04;;;;;;;12.40;5.95;;;1.70;99.90;;;;;;5070050;28;20028;-65
2021/03/07 05:50:09;;;;;;;11.88;6.35;;;1.70;99.90;;;;;;5066946;28;20044;-66
2021/03/07 05:53:14;;;;;;;14.10;7.28;;;1.80;99.90;;;;;;5064907;28;20108;-66
2021/03/07 05:56:18;;;;;;;15.35;8.32;;;2.00;99.90;;;;;;5067175;28;20412;-66
2021/03/07 05:59:23;;;;;;;20.98;10.32;;;2.10;99.90;;;;;;5070809;28;20508;-66
2021/03/07 06:02:27;;;;;;;13.85;8.27;;;2.30;99.90;;;;;;5066452;28;20051;-66
2021/03/07 06:05:34;;;;;;;15.48;8.15;;;2.30;99.90;;;;;;5063071;28;20051;-67
2021/03/07 06:08:38;;;;;;;20.23;10.38;;;2.40;99.90;;;;;;5070803;28;20408;-66
2021/03/07 06:11:42;;;;;;;17.95;6.65;;;2.50;99.90;;;;;;5070686;28;20568;-65
2021/03/07 06:15:01;;;;;;;14.68;6.68;;;2.60;99.90;;;;;;5062038;28;20095;-66
2021/03/07 06:18:12;;;;;;;11.73;6.50;;;2.70;99.90;;;;;;5070935;28;20039;-67
2021/03/07 06:21:34;;;;;;;11.90;6.35;;;2.80;99.90;;;;;;5058513;28;20191;-67
2021/03/07 06:24:41;;;;;;;11.15;6.50;;;3.00;99.90;;;;;;5066185;28;20043;-66
2021/03/07 06:27:45;;;;;;;13.98;5.88;;;3.20;99.90;;;;;;5068793;28;20507;-67
2021/03/07 06:30:50;;;;;;;10.40;5.60;;;4.20;99.90;;;;;;5068209;28;20400;-66
2021/03/07 06:33:59;;;;;;;8.73;4.50;;;6.90;99.90;;;;;;5069080;28;20049;-65
2021/03/07 06:37:04;;;;;;;10.25;5.03;;;9.60;99.90;;;;;;5064517;28;20036;-67
2021/03/07 06:40:26;;;;;;;11.00;6.82;;;11.50;99.90;;;;;;5065906;28;20035;-67
2021/03/07 06:43:31;;;;;;;14.80;5.78;;;13.10;99.30;;;;;;5063034;28;20059;-67
2021/03/07 06:46:38;;;;;;;10.30;5.70;;;14.50;95.50;;;;;;5069300;28;20415;-67
2021/03/07 06:49:44;;;;;;;8.38;5.05;;;15.80;90.70;;;;;;5068344;28;20044;-67
2021/03/07 06:52:55;;;;;;;10.82;6.13;;;13.90;87.60;;;;;;5065645;28;20047;-67
2021/03/07 06:56:00;;;;;;;10.43;5.20;;;12.30;90.50;;;;;;5063380;28;20400;-68
2021/03/07 06:59:24;;;;;;;10.77;6.30;;;11.40;92.50;;;;;;5068570;28;20047;-67
2021/03/07 07:02:28;;;;;;;15.15;6.47;;;11.30;94.40;;;;;;5069592;28;20047;-67
2021/03/07 07:05:34;;;;;;;12.02;6.22;;;13.50;92.20;;;;;;5068111;28;20118;-67
2021/03/07 07:08:47;;;;;;;8.90;5.32;;;14.40;89.90;;;;;;5066109;28;20043;-66
2021/03/07 07:11:51;;;;;;;7.82;4.70;;;14.80;87.20;;;;;;5061660;28;20531;-67
2021/03/07 07:15:04;;;;;;;13.98;4.28;;;14.90;86.50;;;;;;5063648;28;20031;-67
2021/03/07 07:18:09;;;;;;;7.13;4.22;;;16.10;85.70;;;;;;5069663;28;20035;-67
2021/03/07 07:21:15;;;;;;;8.88;4.05;;;16.50;82.00;;;;;;5064126;28;20123;-67
2021/03/07 07:24:19;;;;;;;7.53;4.13;;;16.90;80.60;;;;;;5068653;28;20400;-66
2021/03/07 07:27:23;;;;;;;9.00;3.95;;;17.60;77.80;;;;;;5065305;28;20039;-67
2021/03/07 07:30:26;;;;;;;14.38;8.40;;;17.00;76.00;;;;;;5065740;28;20048;-67
2021/03/07 07:33:49;;;;;;;14.55;6.97;;;17.90;73.90;;;;;;5056138;28;20443;-67
2021/03/07 07:36:59;;;;;;;10.13;6.38;;;19.10;72.20;;;;;;5057905;28;20040;-67
2021/03/07 07:40:05;;;;;;;12.23;6.15;;;17.70;73.10;;;;;;5058232;28;20044;-67
2021/03/07 07:43:10;;;;;;;9.90;6.47;;;16.00;73.90;;;;;;5063946;28;20424;-68
2021/03/07 07:46:15;;;;;;;10.55;5.80;;;16.00;74.60;;;;;;5066290;28;20044;-68
2021/03/07 07:49:52;;;;;;;8.73;6.10;;;15.80;77.20;;;;;;5061952;28;20048;-65
2021/03/07 07:53:05;;;;;;;13.82;7.57;;;13.60;79.80;;;;;;5065739;28;20512;-67
2021/03/07 07:56:33;;;;;;;10.05;7.32;;;13.80;80.80;;;;;;5059800;28;20044;-67
2021/03/07 07:59:51;;;;;;;13.25;7.20;;;15.70;78.80;;;;;;5064733;28;20063;-67
2021/03/07 08:02:57;;;;;;;18.63;8.07;;;16.40;76.90;;;;;;5063655;28;20063;-68
2021/03/07 08:06:03;;;;;;;11.73;7.22;;;16.30;75.60;;;;;;5066064;28;20047;-68
2021/03/07 08:09:37;;;;;;;10.90;7.05;;;16.70;76.30;;;;;;5059553;28;20047;-67
2021/03/07 08:12:44;;;;;;;11.98;7.05;;;17.80;74.00;;;;;;5064424;28;20514;-67
2021/03/07 08:15:51;;;;;;;14.43;7.75;;;18.40;73.00;;;;;;5067526;28;20044;-67
2021/03/07 08:18:55;;;;;;;13.93;8.18;;;19.30;70.40;;;;;;5068695;28;20051;-67
2021/03/07 08:22:07;;;;;;;13.57;7.50;;;17.60;69.70;;;;;;5061937;28;20039;-67
2021/03/07 08:25:11;;;;;;;12.50;7.25;;;14.70;78.20;;;;;;5060827;28;20039;-67
2021/03/07 08:31:33;;;;;;;11.68;7.60;;;13.70;78.10;;;;;;5065525;28;20044;-67
2021/03/07 08:34:44;;;;;;;26.23;15.50;;;15.30;77.80;;;;;;5064968;28;20047;-67
2021/03/07 08:38:14;;;;;;;22.98;14.05;;;14.60;78.90;;;;;;5067780;28;20043;-67
2021/03/07 08:41:21;;;;;;;17.55;8.93;;;14.30;78.90;;;;;;5067692;28;20515;-67
2021/03/07 08:44:25;;;;;;;10.00;6.55;;;14.90;77.30;;;;;;5068335;28;20527;-66
2021/03/07 08:48:02;;;;;;;13.77;7.05;;;15.20;75.40;;;;;;5071616;28;20051;-67
2021/03/07 08:51:07;;;;;;;9.40;5.95;;;17.30;72.90;;;;;;5040299;28;20052;-67
2021/03/07 08:54:17;;;;;;;17.67;7.43;;;18.40;70.20;;;;;;5072104;28;20039;-67
2021/03/07 08:57:22;;;;;;;14.88;6.88;;;19.30;67.60;;;;;;5059597;28;20408;-67
2021/03/07 09:00:26;;;;;;;11.82;6.20;;;18.80;67.90;;;;;;5071786;28;20047;-67
2021/03/07 09:03:30;;;;;;;9.70;6.20;;;20.50;65.20;;;;;;5071697;28;20063;-67
2021/03/07 09:06:36;;;;;;;7.75;5.18;;;21.70;61.90;;;;;;5068002;28;20051;-67
2021/03/07 09:09:43;;;;;;;11.35;6.03;;;18.80;62.80;;;;;;5071629;28;20538;-67
2021/03/07 09:12:47;;;;;;;14.80;5.60;;;18.70;63.80;;;;;;5062353;28;20403;-66
2021/03/07 09:15:54;;;;;;;9.10;6.00;;;20.20;63.00;;;;;;5070518;28;20055;-67
2021/03/07 09:18:58;;;;;;;11.82;5.63;;;20.40;61.50;;;;;;5067911;28;20039;-67
2021/03/07 09:22:23;;;;;;;9.68;5.72;;;20.10;62.20;;;;;;5065190;28;20052;-68
2021/03/07 09:25:27;;;;;;;8.82;5.57;;;21.50;61.30;;;;;;5067862;28;20412;-68
2021/03/07 09:28:39;;;;;;;8.88;5.63;;;21.50;61.00;;;;;;5068720;28;20047;-67
2021/03/07 09:31:43;;;;;;;;;;;21.30;60.20;;;;;;5061965;28;20044;-65
2021/03/07 09:34:47;;;;;;;7.82;5.07;;;21.30;59.60;;;;;;5067183;28;19916;-67
2021/03/07 09:38:10;;;;;;;9.65;5.25;;;21.60;59.00;;;;;;5064072;28;20048;-67
2021/03/07 09:41:26;;;;;;;7.00;5.10;;;19.80;59.00;;;;;;5060090;28;20040;-67
2021/03/07 09:44:31;;;;;;;7.72;4.43;;;20.10;59.90;;;;;;5061445;28;20404;-68
2021/03/07 09:47:35;;;;;;;7.60;4.07;;;22.40;58.90;;;;;;5058719;28;20044;-65
2021/03/07 09:50:41;;;;;;;5.10;4.20;;;22.90;57.90;;;;;;5070222;28;20064;-67
2021/03/07 09:53:45;;;;;;;7.35;4.28;;;26.00;52.80;;;;;;5067391;28;20039;-67
2021/03/07 09:56:52;;;;;;;7.35;4.05;;;25.80;50.60;;;;;;5061717;28;20065;-67
2021/03/07 09:59:57;;;;;;;4.97;3.80;;;28.50;49.80;;;;;;5070869;28;20031;-66
2021/03/07 10:03:01;;;;;;;8.60;4.57;;;28.30;47.10;;;;;;5068025;28;20051;-67
2021/03/07 10:06:11;;;;;;;8.20;5.22;;;29.50;45.80;;;;;;5068896;28;20051;-67
2021/03/07 10:09:15;;;;;;;7.13;4.75;;;29.90;45.30;;;;;;5064569;28;20527;-65
2021/03/07 10:12:19;;;;;;;8.68;5.10;;;28.60;42.60;;;;;;5064944;28;20072;-67
2021/03/07 10:15:34;;;;;;;6.28;4.70;;;29.60;43.20;;;;;;5064602;28;20051;-67
2021/03/07 10:18:38;;;;;;;6.28;3.67;;;31.10;42.00;;;;;;5059135;28;20048;-67
2021/03/07 10:21:44;;;;;;;5.40;3.40;;;29.40;41.90;;;;;;5061237;28;20036;-67
2021/03/07 10:24:52;;;;;;;7.43;3.60;;;30.50;41.50;;;;;;5066614;28;20044;-67
2021/03/07 10:28:03;;;;;;;6.30;3.55;;;30.70;41.20;;;;;;5061786;28;20043;-67
2021/03/07 10:31:13;;;;;;;7.68;3.50;;;31.60;40.20;;;;;;5066444;28;20538;-67
2021/03/07 10:34:39;;;;;;;5.93;3.17;;;32.70;39.50;;;;;;5067326;28;20059;-67
2021/03/07 10:37:44;;;;;;;7.57;4.55;;;33.30;37.90;;;;;;5049611;28;20532;-67
2021/03/07 10:40:48;;;;;;;5.00;3.88;;;33.40;38.10;;;;;;5059498;28;20055;-68
2021/03/07 10:43:55;;;;;;;5.25;3.63;;;33.70;37.30;;;;;;5060245;28;20047;-68
2021/03/07 10:47:20;;;;;;;8.07;3.88;;;34.00;37.20;;;;;;5063230;28;20044;-67
2021/03/07 10:50:24;;;;;;;9.15;6.68;;;34.60;36.30;;;;;;5066282;28;20043;-67
2021/03/07 10:53:29;;;;;;;6.30;3.80;;;33.70;36.40;;;;;;5056045;28;20036;-67
2021/03/07 10:56:35;;;;;;;6.85;3.72;;;34.00;36.30;;;;;;5052771;28;20048;-67
2021/03/07 10:59:40;;;;;;;8.40;6.28;;;34.60;36.80;;;;;;5057602;28;20063;-67
2021/03/07 11:02:45;;;;;;;7.38;6.00;;;35.00;35.50;;;;;;5062516;28;20044;-67
2021/03/07 11:05:50;;;;;;;6.65;4.78;;;34.00;36.20;;;;;;5065759;28;20044;-67
2021/03/07 11:08:55;;;;;;;7.78;5.07;;;28.90;36.00;;;;;;5061195;28;20039;-66
2021/03/07 11:11:59;;;;;;;9.20;5.40;;;23.90;40.00;;;;;;5061498;28;20107;-66
2021/03/07 11:15:06;;;;;;;8.95;4.60;;;23.90;40.50;;;;;;5061105;28;20043;-66
2021/03/07 11:18:12;;;;;;;8.32;4.10;;;25.10;40.00;;;;;;5059399;28;20044;-67
2021/03/07 11:21:16;;;;;;;9.48;4.40;;;28.00;39.70;;;;;;5060512;28;20052;-67
2021/03/07 11:24:20;;;;;;;8.60;4.90;;;30.50;38.20;;;;;;5056833;28;20051;-66
2021/03/07 11:27:24;;;;;;;6.20;3.90;;;29.90;37.40;;;;;;5061512;28;21020;-67
2021/03/07 11:30:29;;;;;;;6.75;3.63;;;28.60;39.90;;;;;;5062568;28;20039;-66
2021/03/07 11:33:33;;;;;;;7.68;4.22;;;30.10;38.00;;;;;;5059233;28;20047;-66
2021/03/07 11:36:37;;;;;;;7.75;4.65;;;30.00;37.50;;;;;;5055941;28;20048;-66
2021/03/07 11:39:41;;;;;;;10.02;4.93;;;29.30;36.70;;;;;;5058970;28;20408;-65
2021/03/07 11:42:46;;;;;;;8.63;5.30;;;24.50;39.50;;;;;;5060737;28;20079;-66
2021/03/07 11:45:50;;;;;;;9.25;4.90;;;23.80;42.20;;;;;;5058289;28;20519;-66
2021/03/07 11:48:54;;;;;;;7.43;4.40;;;25.70;42.10;;;;;;5058132;28;20407;-66
2021/03/07 11:51:58;;;;;;;9.13;4.47;;;24.80;42.60;;;;;;5062490;28;20047;-66
2021/03/07 11:55:03;;;;;;;11.35;5.47;;;27.30;40.80;;;;;;5062871;28;20068;-66
2021/03/07 11:58:07;;;;;;;8.30;4.90;;;27.10;40.10;;;;;;5062801;28;20040;-66
2021/03/07 12:01:11;;;;;;;8.75;4.28;;;25.20;40.90;;;;;;5054978;28;20070;-66
2021/03/07 12:04:15;;;;;;;10.07;4.45;;;27.10;41.70;;;;;;5061553;28;20519;-66
2021/03/07 12:07:20;;;;;;;9.45;4.30;;;27.90;40.50;;;;;;5064313;28;20047;-67
2021/03/07 12:10:26;;;;;;;7.35;4.00;;;29.70;39.50;;;;;;5049383;28;20048;-66
2021/03/07 12:13:30;;;;;;;8.43;4.88;;;28.60;40.20;;;;;;5059543;28;20043;-65
2021/03/07 12:16:34;;;;;;;8.52;4.00;;;22.50;43.30;;;;;;5060867;28;20519;-66
2021/03/07 12:19:39;;;;;;;12.80;3.60;;;24.30;44.00;;;;;;5065326;28;20051;-66
2021/03/07 12:22:43;;;;;;;7.25;4.20;;;21.70;45.90;;;;;;5065192;28;20046;-66
2021/03/07 12:25:48;;;;;;;5.88;3.50;;;21.30;46.90;;;;;;5073574;28;20036;-66
2021/03/07 12:28:53;;;;;;;7.97;3.83;;;22.60;47.30;;;;;;5067495;28;20458;-65
2021/03/07 12:31:58;;;;;;;11.23;4.07;;;23.50;45.20;;;;;;5066523;28;20044;-65
2021/03/07 12:35:03;;;;;;;7.63;3.00;;;24.50;42.90;;;;;;5069467;28;20064;-69
2021/03/07 12:38:07;;;;;;;7.78;3.80;;;26.50;40.30;;;;;;5072159;28;20040;-68
2021/03/07 12:41:11;;;;;;;7.60;2.63;;;23.90;41.80;;;;;;5064948;28;20051;-68
2021/03/07 12:44:16;;;;;;;6.90;3.00;;;22.90;41.60;;;;;;5068394;28;20048;-66
2021/03/07 12:47:20;;;;;;;7.55;3.40;;;25.10;41.70;;;;;;5072874;28;20047;-65
2021/03/07 12:50:27;;;;;;;8.40;3.38;;;25.90;41.70;;;;;;5066745;28;20059;-66
2021/03/07 12:53:31;;;;;;;8.13;3.50;;;25.00;39.40;;;;;;5066465;28;20526;-66
2021/03/07 12:56:37;;;;;;;8.98;3.60;;;23.20;40.50;;;;;;5071892;28;20047;-66
2021/03/07 12:59:42;;;;;;;5.82;3.45;;;23.30;42.50;;;;;;5063737;28;20039;-66
2021/03/07 13:02:46;;;;;;;7.88;3.28;;;24.50;42.80;;;;;;5071702;28;20522;-66
2021/03/07 13:05:51;;;;;;;5.95;3.30;;;27.90;40.10;;;;;;5068530;28;20051;-66
2021/03/07 13:08:56;;;;;;;7.63;3.40;;;29.90;38.70;;;;;;5061361;28;20055;-67
2021/03/07 13:12:00;;;;;;;5.60;2.63;;;31.00;37.80;;;;;;5072465;28;20123;-67
2021/03/07 13:15:06;;;;;;;6.18;2.80;;;30.70;36.80;;;;;;5060952;28;20039;-67
2021/03/07 13:18:10;;;;;;;6.05;3.00;;;30.70;37.40;;;;;;5050951;28;20068;-66
2021/03/07 13:21:15;;;;;;;7.07;3.05;;;29.80;36.90;;;;;;5064588;28;20420;-66
2021/03/07 13:24:20;;;;;;;8.13;3.08;;;24.00;38.80;;;;;;5067872;28;20407;-67
2021/03/07 13:27:25;;;;;;;6.00;2.92;;;23.60;41.90;;;;;;5067180;28;20417;-66
2021/03/07 13:30:29;;;;;;;5.65;3.05;;;25.00;40.40;;;;;;5064467;28;20048;-67
2021/03/07 13:33:34;;;;;;;9.18;3.55;;;22.10;42.70;;;;;;5067859;28;20047;-66
2021/03/07 13:36:38;;;;;;;5.95;2.83;;;24.90;41.60;;;;;;5067344;28;20051;-66
2021/03/07 13:39:42;;;;;;;5.63;2.78;;;24.70;41.90;;;;;;5067428;28;20051;-66
2021/03/07 13:42:57;;;;;;;4.32;2.80;;;24.90;41.00;;;;;;5067729;28;20047;-66
2021/03/07 13:46:02;;;;;;;4.25;2.72;;;26.90;39.50;;;;;;5067084;28;20040;-66
2021/03/07 13:49:07;;;;;;;5.72;2.85;;;26.10;38.10;;;;;;5070085;28;20031;-66
2021/03/07 13:52:12;;;;;;;6.63;3.00;;;27.40;39.80;;;;;;5070020;28;20043;-67
2021/03/07 13:55:17;;;;;;;5.55;3.00;;;28.10;38.60;;;;;;5071059;28;20058;-66
2021/03/07 13:58:22;;;;;;;8.30;3.75;;;25.70;39.30;;;;;;5076923;28;20510;-68
2021/03/07 14:01:27;;;;;;;5.18;2.85;;;24.10;41.00;;;;;;5062105;28;20047;-65
2021/03/07 14:04:31;;;;;;;5.32;3.25;;;25.40;40.00;;;;;;5067168;28;20045;-66
2021/03/07 14:07:36;;;;;;;8.05;2.63;;;26.50;41.30;;;;;;5068290;28;20044;-66
2021/03/07 14:10:40;;;;;;;5.30;2.63;;;27.70;41.40;;;;;;5066164;28;20050;-65
2021/03/07 14:13:44;;;;;;;5.93;2.72;;;28.70;38.50;;;;;;5066901;28;20103;-66
2021/03/07 14:16:48;;;;;;;9.77;3.30;;;28.50;37.90;;;;;;5068592;28;20051;-66
2021/03/07 14:19:53;;;;;;;3.40;2.70;;;28.40;40.10;;;;;;5067894;28;20044;-68
2021/03/07 14:22:58;;;;;;;5.32;2.97;;;29.10;38.60;;;;;;5069444;28;20059;-65
2021/03/07 14:26:02;;;;;;;6.72;2.95;;;25.90;38.20;;;;;;5064229;28;20048;-68
2021/03/07 14:29:05;;;;;;;9.35;2.95;;;26.20;41.20;;;;;;5056598;28;20036;-68
2021/03/07 14:32:09;;;;;;;8.90;4.18;;;26.40;39.70;;;;;;5065512;28;20051;-68
2021/03/07 14:35:14;;;;;;;5.93;3.35;;;25.80;40.00;;;;;;5064144;28;20408;-68
2021/03/07 14:38:20;;;;;;;8.27;3.28;;;26.10;40.20;;;;;;5060522;28;20055;-67
2021/03/07 14:41:25;;;;;;;8.20;3.67;;;23.10;42.00;;;;;;5065103;28;20543;-67
2021/03/07 14:44:30;;;;;;;8.25;3.22;;;23.60;42.40;;;;;;5066776;28;20643;-68
2021/03/07 14:47:34;;;;;;;8.38;3.55;;;23.40;43.20;;;;;;5065140;28;20038;-67
2021/03/07 14:50:38;;;;;;;10.32;3.70;;;23.90;42.60;;;;;;5062392;28;20032;-67
2021/03/07 14:53:42;;;;;;;6.00;3.22;;;23.90;43.00;;;;;;5065979;28;20511;-67
2021/03/07 14:56:47;;;;;;;9.65;3.85;;;24.60;43.30;;;;;;5061907;28;20047;-67
2021/03/07 14:59:51;;;;;;;6.85;4.10;;;24.10;41.80;;;;;;5062131;28;20048;-67
2021/03/07 15:02:56;;;;;;;12.30;3.60;;;24.00;43.60;;;;;;5059499;28;20036;-67
2021/03/07 15:06:00;;;;;;;8.25;4.10;;;24.30;44.00;;;;;;5061924;28;20036;-67
2021/03/07 15:09:06;;;;;;;6.38;3.55;;;24.10;43.90;;;;;;5060963;28;20128;-67
2021/03/07 15:12:10;;;;;;;8.48;3.63;;;23.20;44.40;;;;;;5062576;28;20615;-67
2021/03/07 15:15:15;;;;;;;9.23;4.63;;;22.40;44.80;;;;;;5058900;28;20741;-67
2021/03/07 15:18:20;;;;;;;8.02;4.35;;;20.00;46.90;;;;;;5062456;28;20044;-66
2021/03/07 15:21:24;;;;;;;9.90;5.57;;;18.60;49.60;;;;;;5055360;28;20065;-67
2021/03/07 15:24:28;;;;;;;8.57;4.88;;;17.80;52.40;;;;;;5066475;28;20047;-66
2021/03/07 15:27:32;;;;;;;19.20;8.85;;;17.50;52.50;;;;;;5062146;28;20048;-67
2021/03/07 15:30:36;;;;;;;11.43;4.15;;;17.50;52.40;;;;;;5066810;28;20048;-67
2021/03/07 15:33:40;;;;;;;14.48;5.40;;;17.50;52.10;;;;;;5065067;28;20039;-67
2021/03/07 15:36:45;;;;;;;8.75;4.68;;;16.90;53.00;;;;;;5061115;28;20047;-67
2021/03/07 15:39:50;;;;;;;13.88;5.13;;;17.10;53.90;;;;;;5066259;28;20080;-66
2021/03/07 15:42:54;;;;;;;11.95;5.38;;;16.90;54.30;;;;;;5067688;28;20043;-65
2021/03/07 15:45:58;;;;;;;9.40;4.95;;;17.00;54.50;;;;;;5066895;28;20040;-67
2021/03/07 15:49:03;;;;;;;115.93;42.25;;;17.10;54.20;;;;;;5066879;28;21452;-67
2021/03/07 15:52:08;;;;;;;76.32;28.60;;;17.00;54.70;;;;;;5065799;28;20051;-67
2021/03/07 15:55:13;;;;;;;10.25;4.70;;;17.10;54.80;;;;;;5069757;28;20055;-67
2021/03/07 15:58:18;;;;;;;23.30;8.73;;;17.30;53.80;;;;;;5067842;28;20047;-66
2021/03/07 16:01:22;;;;;;;28.40;10.77;;;17.20;53.40;;;;;;5066731;28;20051;-67
2021/03/07 16:04:26;;;;;;;9.18;4.03;;;17.50;53.80;;;;;;5069970;28;20051;-67
2021/03/07 16:07:30;;;;;;;18.63;5.88;;;17.60;52.80;;;;;;5069054;28;20032;-66
2021/03/07 16:10:34;;;;;;;16.15;6.07;;;17.70;52.50;;;;;;5064768;28;20313;-67
2021/03/07 16:13:39;;;;;;;13.68;4.80;;;17.70;52.50;;;;;;5071831;28;20031;-67